createdAt,value
2022-08-22T00:00:49.951Z,99058.81
2022-08-22T00:02:48.935Z,99150.75
2022-08-22T00:02:49.934Z,99107.81
2022-08-22T00:02:54.492Z,99131.44
2022-08-22T00:02:57.786Z,99078.94
2022-08-22T00:02:58.815Z,99103.09
2022-08-22T00:02:59.281Z,99062.53
2022-08-22T00:03:24.542Z,99057.44
2022-08-22T00:06:01.422Z,99052.25
2022-08-22T00:08:32.337Z,99062.44
2022-08-22T00:11:02.602Z,99060.62
2022-08-22T00:13:36.351Z,99059.22
2022-08-22T00:16:13.035Z,99054.59
2022-08-22T00:19:01.067Z,99060.09
2022-08-22T00:21:30.512Z,99063.28
2022-08-22T00:24:30.438Z,99064.66
2022-08-22T00:27:07.475Z,99061.16
2022-08-22T00:29:38.757Z,99058.44
2022-08-22T00:32:13.935Z,99056.81
2022-08-22T00:35:01.966Z,99052.47
2022-08-22T00:37:34.292Z,99063.03
2022-08-22T00:40:28.422Z,99057.59
2022-08-22T00:43:08.485Z,99064.94
2022-08-22T00:45:39.056Z,99060.25
2022-08-22T00:48:14.677Z,99064.19
2022-08-22T00:50:49.343Z,99067.69
2022-08-22T00:53:19.600Z,99064.44
2022-08-22T00:55:52.948Z,99071.66
2022-08-22T00:58:49.504Z,99070.28
2022-08-22T01:01:17.436Z,99071.78
2022-08-22T01:03:44.803Z,99067.34
2022-08-22T01:06:24.638Z,99057.97
2022-08-22T01:13:05.517Z,99061.28
2022-08-22T01:15:34.858Z,99059.84
2022-08-22T01:18:16.981Z,99058.22
2022-08-22T01:21:04.158Z,99060.75
2022-08-22T01:23:52.852Z,99057.78
2022-08-22T01:26:33.363Z,99058.44
2022-08-22T01:29:11.201Z,99062.97
2022-08-22T01:31:41.697Z,99062.69
2022-08-22T01:34:16.450Z,99052.78
2022-08-22T01:36:53.385Z,99051.62
2022-08-22T01:39:46.790Z,99051.16
2022-08-22T01:42:26.302Z,99052.47
2022-08-22T01:44:53.637Z,99061.50
2022-08-22T01:47:23.875Z,99063.69
2022-08-22T01:49:57.217Z,99059.78
2022-08-22T01:52:39.754Z,99059.22
2022-08-22T01:55:12.402Z,99054.84
2022-08-22T01:57:56.273Z,99053.81
2022-08-22T02:00:35.360Z,99049.25
2022-08-22T02:03:08.384Z,99055.63
2022-08-22T02:05:37.376Z,99052.34
2022-08-22T02:08:14.557Z,99058.28
2022-08-22T02:10:58.030Z,99055.59
2022-08-22T02:13:41.251Z,99048.91
2022-08-22T02:16:16.141Z,99047.97
2022-08-22T02:18:54.258Z,99048.34
2022-08-22T02:21:23.581Z,99047.41
2022-08-22T02:23:58.965Z,99048.09
2022-08-22T02:26:26.266Z,99050.78
2022-08-22T02:29:03.034Z,99039.63
2022-08-22T02:31:36.739Z,99043.25
2022-08-22T02:34:15.623Z,99036.50
2022-08-22T02:36:47.612Z,99041.56
2022-08-22T02:39:35.605Z,99038.63
2022-08-22T02:42:08.446Z,99040.16
2022-08-22T02:44:37.640Z,99035.84
2022-08-22T02:47:25.059Z,99031.28
2022-08-22T02:50:07.141Z,99030.44
2022-08-22T02:53:02.699Z,99038.34
2022-08-22T02:55:31.178Z,99041.03
2022-08-22T02:58:07.439Z,99035.38
2022-08-22T03:00:43.055Z,99028.50
2022-08-22T03:03:16.433Z,99031.69
2022-08-22T03:05:44.207Z,99027.44
2022-08-22T03:08:21.988Z,99027.22
2022-08-22T03:11:10.771Z,99029.47
2022-08-22T03:14:09.497Z,99034.72
2022-08-22T03:16:52.309Z,99035.56
2022-08-22T03:19:22.369Z,99037.78
2022-08-22T03:22:10.502Z,99043.06
2022-08-22T03:24:41.208Z,99039.19
2022-08-22T03:27:27.813Z,99044.62
2022-08-22T03:30:05.527Z,99045.38
2022-08-22T03:32:53.686Z,99049.53
2022-08-22T03:35:27.553Z,99049.66
2022-08-22T03:38:28.994Z,99046.19
2022-08-22T03:41:10.633Z,99050.75
2022-08-22T03:43:58.497Z,99054.38
2022-08-22T03:46:49.556Z,99051.03
2022-08-22T03:49:26.327Z,99053.19
2022-08-22T03:52:13.063Z,99051.66
2022-08-22T03:54:40.683Z,99056.75
2022-08-22T03:57:20.922Z,99053.97
2022-08-22T03:59:58.998Z,99062.72
2022-08-22T04:02:41.983Z,99063.16
2022-08-22T04:05:14.171Z,99056.41
2022-08-22T04:08:11.259Z,99057.78
2022-08-22T04:10:44.250Z,99063.25
2022-08-22T04:13:25.868Z,99068.84
2022-08-22T04:15:53.564Z,99069.78
2022-08-22T04:18:34.086Z,99067.16
2022-08-22T04:21:20.963Z,99062.41
2022-08-22T04:24:13.489Z,99064.72
2022-08-22T04:26:46.483Z,99070.09
2022-08-22T04:29:20.157Z,99065.59
2022-08-22T04:31:51.433Z,99078.84
2022-08-22T04:34:21.866Z,99071.94
2022-08-22T04:36:51.637Z,99073.06
2022-08-22T04:39:24.044Z,99078.78
2022-08-22T04:42:16.063Z,99079.25
2022-08-22T04:45:05.335Z,99082.19
2022-08-22T04:48:06.484Z,99074.25
2022-08-22T04:54:49.491Z,99080.47
2022-08-22T04:57:17.665Z,99081.63
2022-08-22T04:59:46.109Z,99083.81
2022-08-22T05:02:20.432Z,99087.47
2022-08-22T05:04:55.596Z,99094.28
2022-08-22T05:07:27.494Z,99086.81
2022-08-22T05:10:11.649Z,99088.19
2022-08-22T05:12:41.529Z,99087.88
2022-08-22T05:15:18.982Z,99087.94
2022-08-22T05:17:52.076Z,99091.22
2022-08-22T05:20:22.373Z,99085.59
2022-08-22T05:22:52.708Z,99086.25
2022-08-22T05:25:23.227Z,99090.00
2022-08-22T05:27:56.323Z,99089.22
2022-08-22T05:30:26.616Z,99094.81
2022-08-22T05:32:55.826Z,99101.56
2022-08-22T05:35:38.280Z,99099.19
2022-08-22T05:38:07.055Z,99102.72
2022-08-22T05:40:37.860Z,99102.59
2022-08-22T05:43:09.321Z,99108.56
2022-08-22T05:45:40.262Z,99111.16
2022-08-22T05:48:11.774Z,99109.16
2022-08-22T05:50:43.427Z,99102.88
2022-08-22T05:53:12.225Z,99107.09
2022-08-22T05:56:03.104Z,99113.53
2022-08-22T05:58:44.078Z,99122.63
2022-08-22T06:01:28.163Z,99118.81
2022-08-22T06:04:07.036Z,99128.25
2022-08-22T06:06:38.059Z,99127.91
2022-08-22T06:09:08.158Z,99125.66
2022-08-22T06:11:35.585Z,99119.78
2022-08-22T06:14:14.319Z,99128.53
2022-08-22T06:16:47.582Z,99122.91
2022-08-22T06:19:19.639Z,99120.06
2022-08-22T06:21:58.170Z,99118.38
2022-08-22T06:24:27.902Z,99129.81
2022-08-22T06:26:58.354Z,99118.53
2022-08-22T06:29:37.627Z,99134.03
2022-08-22T06:32:30.755Z,99130.66
2022-08-22T06:35:20.775Z,99131.69
2022-08-22T06:37:50.168Z,99134.03
2022-08-22T06:40:24.339Z,99132.69
2022-08-22T06:42:56.595Z,99142.56
2022-08-22T06:45:31.710Z,99137.06
2022-08-22T06:48:00.976Z,99141.78
2022-08-22T06:50:31.793Z,99144.47
2022-08-22T06:53:01.095Z,99134.72
2022-08-22T06:55:29.326Z,99136.72
2022-08-22T06:58:09.362Z,99127.47
2022-08-22T07:00:39.184Z,99136.72
2022-08-22T07:03:08.794Z,99137.34
2022-08-22T07:05:38.242Z,99133.44
2022-08-22T07:08:08.744Z,99138.69
2022-08-22T07:10:40.081Z,99131.53
2022-08-22T07:13:14.044Z,99134.13
2022-08-22T07:15:43.163Z,99132.97
2022-08-22T07:18:21.410Z,99128.75
2022-08-22T07:20:53.093Z,99134.84
2022-08-22T07:23:41.161Z,99140.16
2022-08-22T07:26:28.329Z,99141.31
2022-08-22T07:29:11.398Z,99149.19
2022-08-22T07:31:51.499Z,99141.81
2022-08-22T07:34:21.153Z,99141.31
2022-08-22T07:37:07.162Z,99139.19
2022-08-22T07:40:16.196Z,99136.12
2022-08-22T07:43:05.173Z,99143.09
2022-08-22T07:46:16.336Z,99144.81
2022-08-22T07:49:09.538Z,99145.66
2022-08-22T07:51:38.150Z,99151.97
2022-08-22T07:54:09.433Z,99155.87
2022-08-22T07:56:42.727Z,99157.47
2022-08-22T07:59:14.615Z,99154.97
2022-08-22T08:01:51.213Z,99152.63
2022-08-22T08:04:24.936Z,99153.97
2022-08-22T08:06:55.852Z,99147.97
2022-08-22T08:09:25.113Z,99155.47
2022-08-22T08:11:55.382Z,99152.03
2022-08-22T08:17:10.772Z,99149.34
2022-08-22T08:19:44.932Z,99157.28
2022-08-22T08:22:17.320Z,99152.69
2022-08-22T08:24:46.225Z,99149.56
2022-08-22T08:27:36.180Z,99155.06
2022-08-22T08:30:20.157Z,99154.81
2022-08-22T08:33:25.762Z,99152.12
2022-08-22T08:36:02.514Z,99156.41
2022-08-22T08:38:40.334Z,99157.22
2022-08-22T08:41:28.258Z,99149.53
2022-08-22T08:44:04.244Z,99151.97
2022-08-22T08:46:39.238Z,99148.34
2022-08-22T08:49:13.354Z,99155.34
2022-08-22T08:52:00.849Z,99150.78
2022-08-22T08:54:45.197Z,99146.19
2022-08-22T08:57:26.414Z,99158.12
2022-08-22T09:00:12.428Z,99156.91
2022-08-22T09:03:07.155Z,99162.84
2022-08-22T09:05:47.305Z,99160.09
2022-08-22T09:08:42.223Z,99162.31
2022-08-22T09:11:14.351Z,99162.09
2022-08-22T09:13:50.379Z,99159.69
2022-08-22T09:16:31.342Z,99163.75
2022-08-22T09:19:10.509Z,99166.97
2022-08-22T09:21:40.575Z,99161.88
2022-08-22T09:24:30.590Z,99160.03
2022-08-22T09:27:10.160Z,99157.19
2022-08-22T09:29:54.767Z,99159.84
2022-08-22T09:32:35.153Z,99161.03
2022-08-22T09:35:08.166Z,99156.75
2022-08-22T09:37:42.009Z,99164.91
2022-08-22T09:40:19.662Z,99155.22
2022-08-22T09:43:04.561Z,99150.41
2022-08-22T09:49:27.284Z,99157.81
2022-08-22T09:52:33.243Z,99155.63
2022-08-22T09:55:27.897Z,99162.47
2022-08-22T10:00:44.375Z,99158.16
2022-08-22T10:03:19.530Z,99164.69
2022-08-22T10:06:03.710Z,99159.84
2022-08-22T10:08:40.179Z,99159.19
2022-08-22T10:11:31.432Z,99169.03
2022-08-22T10:14:04.291Z,99158.75
2022-08-22T10:16:54.507Z,99162.41
2022-08-22T10:19:32.125Z,99166.09
2022-08-22T10:22:21.349Z,99164.81
2022-08-22T10:25:01.809Z,99166.25
2022-08-22T10:27:48.298Z,99166.12
2022-08-22T10:30:17.630Z,99161.56
2022-08-22T10:32:47.159Z,99163.31
2022-08-22T10:35:27.620Z,99168.38
2022-08-22T10:38:07.227Z,99165.44
2022-08-22T10:40:43.353Z,99159.91
2022-08-22T10:43:12.421Z,99164.94
2022-08-22T10:45:44.502Z,99168.81
2022-08-22T10:48:14.235Z,99163.31
2022-08-22T10:50:50.235Z,99170.13
2022-08-22T10:53:34.921Z,99162.63
2022-08-22T10:56:06.189Z,99162.94
2022-08-22T10:58:55.181Z,99168.41
2022-08-22T11:01:38.034Z,99160.88
2022-08-22T11:04:19.200Z,99164.97
2022-08-22T11:06:57.461Z,99156.66
2022-08-22T11:16:42.229Z,99153.47
2022-08-22T11:19:24.232Z,99156.06
2022-08-22T11:22:01.063Z,99162.06
2022-08-22T11:24:34.610Z,99153.59
2022-08-22T11:27:25.449Z,99155.69
2022-08-22T11:30:18.188Z,99154.34
2022-08-22T11:32:49.213Z,99152.31
2022-08-22T11:35:20.745Z,99153.47
2022-08-22T11:38:00.390Z,99156.19
2022-08-22T11:40:31.246Z,99153.38
2022-08-22T11:43:21.909Z,99154.81
2022-08-22T11:45:53.286Z,99153.66
2022-08-22T11:48:35.416Z,99149.84
2022-08-22T11:51:13.663Z,99148.09
2022-08-22T11:54:12.248Z,99151.31
2022-08-22T11:56:43.515Z,99148.59
2022-08-22T11:59:18.554Z,99141.19
2022-08-22T12:02:03.943Z,99144.94
2022-08-22T12:04:54.466Z,99147.91
2022-08-22T12:07:30.400Z,99143.91
2022-08-22T12:10:16.986Z,99132.13
2022-08-22T12:12:50.479Z,99140.72
2022-08-22T12:15:25.980Z,99144.62
2022-08-22T12:18:14.354Z,99136.25
2022-08-22T12:20:55.281Z,99135.25
2022-08-22T12:23:49.460Z,99135.44
2022-08-22T12:26:30.312Z,99138.66
2022-08-22T12:29:02.363Z,99131.28
2022-08-22T12:31:35.519Z,99125.72
2022-08-22T12:34:32.164Z,99128.19
2022-08-22T12:37:04.569Z,99136.09
2022-08-22T12:39:51.775Z,99138.03
2022-08-22T12:42:27.494Z,99127.19
2022-08-22T12:45:04.418Z,99136.19
2022-08-22T12:47:42.430Z,99126.34
2022-08-22T12:50:18.276Z,99124.75
2022-08-22T12:52:54.483Z,99138.03
2022-08-22T12:55:41.664Z,99140.37
2022-08-22T12:58:22.423Z,99139.66
2022-08-22T13:00:53.454Z,99138.44
2022-08-22T13:03:45.562Z,99148.53
2022-08-22T13:06:35.327Z,99147.69
2022-08-22T13:09:39.239Z,99143.69
2022-08-22T13:12:19.962Z,99139.09
2022-08-22T13:15:04.264Z,99145.91
2022-08-22T13:17:36.764Z,99152.47
2022-08-22T13:20:12.680Z,99155.94
2022-08-22T13:22:45.353Z,99157.75
2022-08-22T13:25:25.459Z,99154.09
2022-08-22T13:28:02.571Z,99154.28
2022-08-22T13:30:37.625Z,99154.72
2022-08-22T13:33:10.281Z,99154.53
2022-08-22T13:38:29.382Z,99154.31
2022-08-22T13:40:59.379Z,99161.91
2022-08-22T13:43:30.406Z,99165.25
2022-08-22T13:46:02.448Z,99162.53
2022-08-22T13:48:56.665Z,99162.34
2022-08-22T13:54:13.504Z,99162.75
2022-08-22T14:00:05.842Z,99174.41
2022-08-22T14:05:30.279Z,99174.50
2022-08-22T14:08:04.829Z,99172.19
2022-08-22T14:10:46.433Z,99175.91
2022-08-22T14:13:41.526Z,99170.25
2022-08-22T14:16:28.316Z,99169.81
2022-08-22T14:21:41.304Z,99169.81
2022-08-22T14:24:14.363Z,99173.94
2022-08-22T14:26:51.379Z,99173.00
2022-08-22T14:29:21.533Z,99169.06
2022-08-22T14:32:00.505Z,99178.34
2022-08-22T14:34:29.597Z,99167.75
2022-08-22T14:37:07.591Z,99166.91
2022-08-22T14:39:47.098Z,99161.19
2022-08-22T14:42:30.071Z,99155.06
2022-08-22T14:45:06.649Z,99166.03
2022-08-22T14:47:55.151Z,99171.59
2022-08-22T14:50:54.327Z,99166.31
2022-08-22T14:53:30.172Z,99163.47
2022-08-22T14:56:04.311Z,99171.50
2022-08-22T14:58:36.410Z,99170.50
2022-08-22T15:01:11.463Z,99167.47
2022-08-22T15:03:42.499Z,99172.88
2022-08-22T15:06:17.869Z,99169.97
2022-08-22T15:08:55.377Z,99171.06
2022-08-22T15:11:33.380Z,99169.87
2022-08-22T15:14:13.492Z,99173.47
2022-08-22T15:16:44.314Z,99175.97
2022-08-22T15:22:25.829Z,99173.94
2022-08-22T15:25:04.634Z,99178.87
2022-08-22T15:28:00.309Z,99174.41
2022-08-22T15:33:25.273Z,99183.34
2022-08-22T15:38:40.088Z,99187.03
2022-08-22T15:41:31.095Z,99188.06
2022-08-22T15:44:08.017Z,99187.00
2022-08-22T15:46:45.440Z,99192.13
2022-08-22T15:49:22.402Z,99194.41
2022-08-22T15:54:51.250Z,99207.63
2022-08-22T15:57:26.334Z,99201.03
2022-08-22T16:00:18.870Z,99208.72
2022-08-22T16:02:58.267Z,99212.19
2022-08-22T16:08:16.887Z,99219.03
2022-08-22T16:10:50.536Z,99223.53
2022-08-22T16:13:27.274Z,99220.31
2022-08-22T16:16:01.297Z,99218.28
2022-08-22T16:18:38.277Z,99221.03
2022-08-22T16:21:09.901Z,99222.72
2022-08-22T16:23:51.145Z,99225.06
2022-08-22T16:26:23.282Z,99225.75
2022-08-22T16:28:59.517Z,99222.03
2022-08-22T16:31:56.677Z,99218.47
2022-08-22T16:37:31.454Z,99218.81
2022-08-22T16:40:05.266Z,99221.69
2022-08-22T16:42:38.653Z,99228.59
2022-08-22T16:45:25.303Z,99229.63
2022-08-22T16:48:09.030Z,99227.28
2022-08-22T16:50:43.488Z,99222.72
2022-08-22T16:53:28.848Z,99224.22
2022-08-22T16:56:11.324Z,99218.13
2022-08-22T16:59:03.378Z,99215.94
2022-08-22T17:02:00.602Z,99222.34
2022-08-22T17:07:22.566Z,99207.19
2022-08-22T17:10:00.838Z,99211.72
2022-08-22T17:12:38.337Z,99205.50
2022-08-22T17:15:12.283Z,99214.59
2022-08-22T17:17:53.882Z,99209.19
2022-08-22T17:20:32.714Z,99221.69
2022-08-22T17:23:14.290Z,99224.72
2022-08-22T17:25:46.314Z,99222.16
2022-08-22T17:28:42.742Z,99228.94
2022-08-22T17:31:12.992Z,99243.91
2022-08-22T17:33:52.955Z,99254.53
2022-08-22T17:39:15.424Z,99262.97
2022-08-22T17:41:56.211Z,99267.38
2022-08-22T17:47:52.873Z,99273.56
2022-08-22T17:50:43.347Z,99273.03
2022-08-22T17:53:24.555Z,99267.03
2022-08-22T17:56:14.210Z,99267.59
2022-08-22T17:59:02.529Z,99255.09
2022-08-22T18:09:58.348Z,99263.06
2022-08-22T18:18:17.446Z,99253.06
2022-08-22T18:20:58.156Z,99258.91
2022-08-22T18:23:40.570Z,99254.66
2022-08-22T18:26:27.094Z,99261.81
2022-08-22T18:34:33.705Z,99260.31
2022-08-22T18:37:25.618Z,99259.25
2022-08-22T18:42:56.200Z,99262.22
2022-08-22T18:45:44.809Z,99264.09
2022-08-22T18:51:30.720Z,99284.81
2022-08-22T18:56:52.339Z,99293.66
2022-08-22T18:59:32.805Z,99286.09
2022-08-22T19:02:23.441Z,99294.63
2022-08-22T19:08:02.830Z,99293.94
2022-08-22T19:10:43.925Z,99291.78
2022-08-22T19:19:17.173Z,99303.69
2022-08-22T19:22:19.753Z,99298.19
2022-08-22T19:27:44.741Z,99286.25
2022-08-22T19:33:38.678Z,99309.31
2022-08-22T19:41:52.681Z,99304.75
2022-08-22T19:47:17.834Z,99313.81
2022-08-22T19:49:50.385Z,99312.88
2022-08-22T20:03:34.592Z,99305.47
2022-08-22T20:06:33.563Z,99299.59
2022-08-22T20:09:09.509Z,99309.06
2022-08-22T20:11:46.965Z,99311.38
2022-08-22T20:14:18.361Z,99313.63
2022-08-22T20:16:56.726Z,99313.41
2022-08-22T20:19:42.633Z,99302.72
2022-08-22T20:22:18.710Z,99313.19
2022-08-22T20:24:59.356Z,99311.62
2022-08-22T20:27:27.443Z,99311.62
2022-08-22T20:30:07.815Z,99311.94
2022-08-22T20:32:49.228Z,99305.16
2022-08-22T20:35:26.569Z,99311.06
2022-08-22T20:38:06.686Z,99308.34
2022-08-22T20:41:01.754Z,99306.81
2022-08-22T20:43:49.301Z,99305.16
2022-08-22T20:46:24.476Z,99306.72
2022-08-22T20:48:55.117Z,99304.53
2022-08-22T20:51:33.829Z,99299.84
2022-08-22T20:54:09.971Z,99302.53
2022-08-22T20:57:01.383Z,99299.53
2022-08-22T20:59:38.250Z,99307.19
2022-08-22T21:02:08.418Z,99304.97
2022-08-22T21:04:47.406Z,99291.53
2022-08-22T21:07:28.690Z,99298.16
2022-08-22T21:10:22.067Z,99298.50
2022-08-22T21:13:09.844Z,99291.72
2022-08-22T21:15:39.582Z,99295.34
2022-08-22T21:18:07.119Z,99294.72
2022-08-22T21:20:40.891Z,99286.47
2022-08-22T21:23:15.566Z,99294.66
2022-08-22T21:25:58.022Z,99291.66
2022-08-22T21:28:34.566Z,99285.06
2022-08-22T21:31:08.779Z,99279.56
2022-08-22T21:33:41.629Z,99291.56
2022-08-22T21:36:25.536Z,99289.75
2022-08-22T21:39:13.315Z,99280.94
2022-08-22T21:42:07.808Z,99281.34
2022-08-22T21:44:59.289Z,99283.06
2022-08-22T21:47:53.138Z,99285.75
2022-08-22T21:50:38.136Z,99291.25
2022-08-22T21:53:29.445Z,99298.03
2022-08-22T21:56:12.676Z,99293.56
2022-08-22T21:59:50.446Z,99285.22
2022-08-22T22:02:29.472Z,99296.50
2022-08-22T22:04:59.887Z,99302.56
2022-08-22T22:07:27.275Z,99305.25
2022-08-22T22:09:55.202Z,99308.63
2022-08-22T22:12:25.642Z,99312.19
2022-08-22T22:14:53.327Z,99319.62
2022-08-22T22:17:20.617Z,99324.91
2022-08-22T22:19:48.479Z,99324.47
2022-08-22T22:22:18.256Z,99319.81
2022-08-22T22:24:45.699Z,99330.84
2022-08-22T22:27:16.923Z,99325.03
2022-08-22T22:29:45.330Z,99336.56
2022-08-22T22:32:12.850Z,99324.25
2022-08-22T22:34:40.900Z,99337.09
2022-08-22T22:37:09.382Z,99338.47
2022-08-22T22:39:36.914Z,99335.31
2022-08-22T22:42:09.382Z,99342.69
2022-08-22T22:44:37.038Z,99346.28
2022-08-22T22:47:05.252Z,99347.72
2022-08-22T22:49:33.401Z,99348.00
2022-08-22T22:52:00.776Z,99352.34
2022-08-22T22:54:29.716Z,99343.00
2022-08-22T22:56:58.521Z,99345.03
2022-08-22T22:59:26.441Z,99350.28
2022-08-22T23:02:15.501Z,99350.75
2022-08-22T23:04:44.727Z,99355.13
2022-08-22T23:07:13.535Z,99353.22
2022-08-22T23:09:44.901Z,99357.09
2022-08-22T23:12:15.645Z,99357.44
2022-08-22T23:14:45.195Z,99348.78
2022-08-22T23:17:12.774Z,99342.84
2022-08-22T23:19:42.401Z,99346.37
2022-08-22T23:22:13.984Z,99345.53
2022-08-22T23:24:42.830Z,99338.63
2022-08-22T23:27:11.175Z,99339.78
2022-08-22T23:29:44.338Z,99346.41
2022-08-22T23:32:12.660Z,99353.47
2022-08-22T23:34:46.341Z,99350.75
2022-08-22T23:37:21.788Z,99359.75
2022-08-22T23:40:10.692Z,99348.59
2022-08-22T23:42:59.400Z,99340.06
2022-08-22T23:45:43.966Z,99339.00
2022-08-22T23:48:11.843Z,99339.47
2022-08-22T23:50:39.206Z,99335.31
2022-08-22T23:53:06.807Z,99336.31
2022-08-22T23:55:34.376Z,99338.37
2022-08-22T23:58:02.057Z,99338.84
